Time;durP1;ratioP1;P1;durP2;ratioP2;P2;SDS_P1;SDS_P2;PMS_P1;PMS_P2;Temp;Humidity;BMP_temperature;BMP_pressure;BME280_temperature;BME280_humidity;BME280_pressure;Samples;Min_cycle;Max_cycle;Signal;HPM_P1;HPM_P2
2021/10/08 00:00:31;;;;;;;;;;;;;;;21.78;33.37;98715.75;5081645;28;1008;-78
2021/10/08 00:02:56;;;;;;;;;;;;;;;21.81;33.00;98709.22;5081463;28;930;-78
2021/10/08 00:05:22;;;;;;;;;;;;;;;21.72;33.43;98712.63;5080594;28;1905;-78
2021/10/08 00:07:47;;;;;;;;;;;;;;;21.72;33.20;98711.81;5081025;28;894;-78
2021/10/08 00:10:13;;;;;;;;;;;;;;;21.84;33.02;98714.03;5080890;28;886;-78
2021/10/08 00:12:38;;;;;;;;;;;;;;;21.71;33.00;98711.00;5080978;28;1005;-78
2021/10/08 00:15:04;;;;;;;;;;;;;;;21.69;33.15;98704.97;5080500;28;927;-78
2021/10/08 00:17:29;;;;;;;;;;;;;;;21.78;32.87;98702.41;5081509;28;986;-78
2021/10/08 00:19:55;;;;;;;;;;;;;;;21.64;32.66;98688.44;5080235;28;963;-78
2021/10/08 00:22:20;;;;;;;;;;;;;;;21.73;32.69;98690.75;5081538;28;958;-78
2021/10/08 00:24:46;;;;;;;;;;;;;;;21.67;32.59;98681.94;5079820;28;1969;-79
2021/10/08 00:27:11;;;;;;;;;;;;;;;21.57;32.82;98689.38;5081352;28;923;-78
2021/10/08 00:29:37;;;;;;;;;;;;;;;21.99;33.29;98691.94;5080562;28;919;-80
2021/10/08 00:32:02;;;;;;;;;;;;;;;22.09;33.76;98697.41;5080677;28;862;-79
2021/10/08 00:34:27;;;;;;;;;;;;;;;22.22;33.56;98700.44;5080482;28;908;-78
2021/10/08 00:36:53;;;;;;;;;;;;;;;21.95;33.37;98691.19;5079366;28;1067;-78
2021/10/08 00:39:19;;;;;;;;;;;;;;;21.94;33.35;98698.09;5079192;28;1193;-78
2021/10/08 00:41:46;;;;;;;;;;;;;;;21.80;33.10;98701.94;5080773;28;946;-79
2021/10/08 00:44:11;;;;;;;;;;;;;;;21.93;32.80;98702.97;5078898;28;1975;-78
2021/10/08 00:46:37;;;;;;;;;;;;;;;21.73;33.15;98702.06;5080989;28;1139;-78
2021/10/08 00:49:03;;;;;;;;;;;;;;;21.67;33.17;98704.59;5078750;28;1078;-79
2021/10/08 00:51:28;;;;;;;;;;;;;;;21.78;33.12;98710.09;5081307;28;919;-79
2021/10/08 00:53:54;;;;;;;;;;;;;;;21.73;33.36;98702.06;5078741;28;1004;-78
2021/10/08 00:56:19;;;;;;;;;;;;;;;21.59;33.40;98703.09;5080895;28;906;-78
2021/10/08 00:58:45;;;;;;;;;;;;;;;21.52;33.56;98697.56;5037129;28;1113;-78
2021/10/08 01:01:10;;;;;;;;;;;;;;;21.69;33.16;98707.78;5038623;28;972;-78
2021/10/08 01:03:36;;;;;;;;;;;;;;;21.63;33.24;98701.00;5034714;28;1817;-79
2021/10/08 01:06:01;;;;;;;;;;;;;;;21.51;33.31;98708.09;5022122;28;1961;-79
2021/10/08 01:08:27;;;;;;;;;;;;;;;21.68;33.94;98703.38;5036375;28;1033;-79
2021/10/08 01:10:52;;;;;;;;;;;;;;;21.96;33.70;98701.28;5037357;28;1015;-79
2021/10/08 01:13:20;;;;;;;;;;;;;;;22.27;33.59;98708.44;5020853;28;1130;-78
2021/10/08 01:15:46;;;;;;;;;;;;;;;22.24;33.08;98698.00;5038222;28;1171;-79
2021/10/08 01:18:12;;;;;;;;;;;;;;;21.70;33.51;98698.06;5037203;28;1204;-79
2021/10/08 01:20:37;;;;;;;;;;;;;;;21.89;33.04;98690.09;5021535;28;1155;-78
2021/10/08 01:23:17;;;;;;;;;;;;;;;21.76;33.01;98685.03;5022342;28;1147;-79
2021/10/08 01:25:50;;;;;;;;;;;;;;;21.70;33.28;98692.41;5038159;28;1976;-78
2021/10/08 01:28:21;;;;;;;;;;;;;;;21.63;33.42;98692.53;5036993;28;1030;-79
2021/10/08 01:30:47;;;;;;;;;;;;;;;21.65;33.11;98700.56;5039993;28;1070;-78
2021/10/08 01:33:12;;;;;;;;;;;;;;;21.76;33.05;98695.53;5057032;28;1280;-78
2021/10/08 01:35:45;;;;;;;;;;;;;;;21.57;33.34;98685.75;5056904;28;1184;-78
2021/10/08 01:38:10;;;;;;;;;;;;;;;21.66;33.23;98691.66;5056735;28;1379;-79
2021/10/08 01:40:37;;;;;;;;;;;;;;;21.65;32.71;98692.88;5040471;28;1549;-78
2021/10/08 01:43:10;;;;;;;;;;;;;;;21.94;33.21;98689.59;5056483;28;1064;-78
2021/10/08 01:45:36;;;;;;;;;;;;;;;22.11;33.71;98691.34;5056528;28;1994;-79
2021/10/08 01:48:01;;;;;;;;;;;;;;;22.21;33.42;98693.19;5056510;28;954;-79
2021/10/08 01:50:30;;;;;;;;;;;;;;;22.16;33.41;98696.50;5057203;28;1192;-78
2021/10/08 01:52:58;;;;;;;;;;;;;;;21.91;33.80;98693.28;5040341;28;1053;-78
2021/10/08 01:55:24;;;;;;;;;;;;;;;21.75;33.76;98694.75;5008041;28;1168;-79
2021/10/08 01:57:55;;;;;;;;;;;;;;;21.68;33.60;98700.53;5040018;28;1170;-78
2021/10/08 02:00:23;;;;;;;;;;;;;;;21.70;33.24;98689.56;5040536;28;1135;-79
2021/10/08 02:02:59;;;;;;;;;;;;;;;21.65;33.59;98698.53;5056916;28;1150;-78
2021/10/08 02:05:25;;;;;;;;;;;;;;;21.75;33.12;98694.75;5077839;28;1906;-79
2021/10/08 02:07:52;;;;;;;;;;;;;;;21.64;33.46;98691.28;5077884;28;1111;-78
2021/10/08 02:10:23;;;;;;;;;;;;;;;21.61;33.40;98694.19;5077690;28;1229;-78
2021/10/08 02:12:48;;;;;;;;;;;;;;;21.62;33.51;98702.25;5060697;28;1221;-78
2021/10/08 02:15:15;;;;;;;;;;;;;;;21.61;33.65;98689.31;5061143;28;1171;-78
2021/10/08 02:17:41;;;;;;;;;;;;;;;21.74;32.95;98676.16;5044021;28;1068;-78
2021/10/08 02:20:06;;;;;;;;;;;;;;;21.61;33.00;98685.69;5077228;28;1424;-78
2021/10/08 02:22:36;;;;;;;;;;;;;;;21.66;32.98;98690.84;5028988;28;1151;-78
2021/10/08 02:25:04;;;;;;;;;;;;;;;21.75;33.25;98693.94;5039460;28;1919;-78
2021/10/08 02:27:29;;;;;;;;;;;;;;;21.96;34.06;98704.13;5040406;28;1541;-78
2021/10/08 02:29:55;;;;;;;;;;;;;;;22.09;34.44;98690.94;5039366;28;1194;-78
2021/10/08 02:32:21;;;;;;;;;;;;;;;22.18;34.63;98702.56;5057107;28;1242;-78
2021/10/08 02:34:47;;;;;;;;;;;;;;;21.88;34.29;98691.31;5035740;28;1215;-78
2021/10/08 02:37:12;;;;;;;;;;;;;;;21.90;33.87;98694.50;5036461;28;1139;-78
2021/10/08 02:39:38;;;;;;;;;;;;;;;21.82;33.43;98691.81;5052356;28;1302;-78
2021/10/08 02:42:05;;;;;;;;;;;;;;;21.81;33.30;98692.22;5020057;28;1204;-78
2021/10/08 02:44:31;;;;;;;;;;;;;;;21.63;33.76;98698.19;5052372;28;1964;-78
2021/10/08 02:46:57;;;;;;;;;;;;;;;21.64;34.00;98694.13;5019448;28;1276;-79
2021/10/08 02:49:23;;;;;;;;;;;;;;;21.73;33.36;98682.25;5052548;28;1316;-79
2021/10/08 02:51:49;;;;;;;;;;;;;;;21.66;33.57;98691.66;5052732;28;1643;-78
2021/10/08 02:54:15;;;;;;;;;;;;;;;21.64;33.34;98694.13;5002552;28;1402;-78
2021/10/08 02:56:40;;;;;;;;;;;;;;;21.60;33.62;98699.03;5051532;28;973;-78
2021/10/08 02:59:06;;;;;;;;;;;;;;;21.57;33.38;98691.41;5016008;28;1150;-79
2021/10/08 03:01:31;;;;;;;;;;;;;;;21.66;33.05;98691.66;5016195;28;1012;-79
2021/10/08 03:03:58;;;;;;;;;;;;;;;21.73;33.40;98680.22;4956721;29;1903;-78
2021/10/08 03:06:24;;;;;;;;;;;;;;;21.73;33.12;98691.53;4972692;28;1146;-78
2021/10/08 03:08:53;;;;;;;;;;;;;;;21.87;32.82;98689.72;4949862;28;1443;-78
2021/10/08 03:11:20;;;;;;;;;;;;;;;21.56;33.65;98686.97;4958071;28;1011;-79
2021/10/08 03:13:45;;;;;;;;;;;;;;;21.65;33.30;98690.03;4957055;29;1009;-78
2021/10/08 03:16:11;;;;;;;;;;;;;;;21.63;33.19;98686.84;4973786;28;1160;-79
2021/10/08 03:18:39;;;;;;;;;;;;;;;21.71;32.94;98677.03;4956440;29;1285;-78
2021/10/08 03:21:05;;;;;;;;;;;;;;;21.67;33.17;98687.59;4957998;29;1187;-78
2021/10/08 03:23:31;;;;;;;;;;;;;;;21.72;33.10;98701.28;4956498;29;1115;-78
2021/10/08 03:25:56;;;;;;;;;;;;;;;21.56;33.02;98709.63;4957842;29;2063;-80
2021/10/08 03:28:24;;;;;;;;;;;;;;;21.83;32.46;98699.06;4956538;28;1297;-78
2021/10/08 03:30:49;;;;;;;;;;;;;;;22.02;33.84;98708.88;4973173;28;1117;-78
2021/10/08 03:33:16;;;;;;;;;;;;;;;22.13;34.51;98702.25;4975894;28;1123;-78
2021/10/08 03:35:43;;;;;;;;;;;;;;;22.10;35.00;98710.38;5045214;28;1166;-78
2021/10/08 03:38:14;;;;;;;;;;;;;;;22.19;35.33;98695.66;5054959;28;908;-78
2021/10/08 03:40:41;;;;;;;;;;;;;;;21.94;34.82;98689.59;5038795;28;994;-78
2021/10/08 03:43:11;;;;;;;;;;;;;;;21.82;34.32;98700.31;5054213;28;1088;-78
2021/10/08 03:45:47;;;;;;;;;;;;;;;21.81;34.05;98703.56;4998941;28;2243;-78
2021/10/08 03:50:44;;;;;;;;;;;;;;;21.79;33.84;98712.50;5018450;28;924;-81
2021/10/08 03:53:10;;;;;;;;;;;;;;;21.83;33.75;98701.91;5015175;28;901;-79
2021/10/08 03:55:35;;;;;;;;;;;;;;;21.74;33.80;98712.16;5014341;28;929;-79
2021/10/08 03:58:01;;;;;;;;;;;;;;;21.77;33.74;98708.50;5014514;28;960;-78
2021/10/08 04:00:26;;;;;;;;;;;;;;;21.68;34.03;98700.53;5015143;28;1136;-79
2021/10/08 04:03:04;;;;;;;;;;;;;;;21.77;33.62;98709.28;5014508;28;1169;-79
2021/10/08 04:05:29;;;;;;;;;;;;;;;21.70;34.05;98711.44;4956267;29;1903;-79
2021/10/08 04:07:56;;;;;;;;;;;;;;;21.56;33.98;98716.09;4956021;29;1318;-78
2021/10/08 04:10:22;;;;;;;;;;;;;;;21.74;33.89;98715.00;4893318;29;1375;-79
2021/10/08 04:12:48;;;;;;;;;;;;;;;21.74;33.32;98715.81;4957615;29;1456;-78
2021/10/08 04:15:14;;;;;;;;;;;;;;;21.70;33.23;98717.09;4941285;29;925;-78
2021/10/08 04:17:39;;;;;;;;;;;;;;;21.72;32.68;98709.78;4956064;29;1536;-78
2021/10/08 04:20:06;;;;;;;;;;;;;;;21.67;33.04;98703.81;4956600;28;1089;-79
2021/10/08 04:22:33;;;;;;;;;;;;;;;21.63;32.87;98705.88;4962408;28;1113;-76
2021/10/08 04:24:58;;;;;;;;;;;;;;;21.65;32.50;98701.38;4964456;28;1906;-77
2021/10/08 04:27:24;;;;;;;;;;;;;;;21.79;32.86;98698.31;4958216;28;1089;-76
2021/10/08 04:29:49;;;;;;;;;;;;;;;21.92;33.58;98703.41;4990193;28;1258;-76
2021/10/08 04:32:15;;;;;;;;;;;;;;;22.00;33.98;98704.88;4974204;28;1373;-77
2021/10/08 04:34:41;;;;;;;;;;;;;;;22.20;34.01;98708.59;5008585;28;1133;-77
2021/10/08 04:37:07;;;;;;;;;;;;;;;22.36;34.25;98705.84;5028706;28;1301;-76
2021/10/08 04:39:33;;;;;;;;;;;;;;;22.04;34.02;98694.28;5000227;28;1112;-76
2021/10/08 04:41:59;;;;;;;;;;;;;;;21.94;33.76;98690.38;5033709;28;1166;-77
2021/10/08 04:44:24;;;;;;;;;;;;;;;21.96;33.37;98687.13;5018964;28;1975;-78
2021/10/08 04:46:51;;;;;;;;;;;;;;;21.79;33.32;98681.31;5036867;28;1901;-77
2021/10/08 04:49:17;;;;;;;;;;;;;;;21.75;33.28;98696.78;5036480;28;1106;-78
2021/10/08 04:51:43;;;;;;;;;;;;;;;21.77;33.54;98695.13;5037008;28;1226;-77
2021/10/08 04:54:10;;;;;;;;;;;;;;;21.84;33.43;98697.84;5035200;28;1115;-76
2021/10/08 04:56:36;;;;;;;;;;;;;;;21.66;33.65;98703.00;5039413;28;1059;-76
2021/10/08 04:59:01;;;;;;;;;;;;;;;21.81;33.58;98704.38;5039665;28;1184;-77
2021/10/08 05:01:27;;;;;;;;;;;;;;;21.77;33.32;98702.84;5014683;28;1347;-77
2021/10/08 05:03:53;;;;;;;;;;;;;;;21.70;33.36;98715.06;4977257;28;1907;-77
2021/10/08 05:06:19;;;;;;;;;;;;;;;21.71;33.02;98719.50;4993447;28;970;-77
2021/10/08 05:08:51;;;;;;;;;;;;;;;21.70;33.45;98717.09;4977423;28;1234;-77
2021/10/08 05:11:19;;;;;;;;;;;;;;;21.97;34.26;98717.09;4977252;28;1105;-78
2021/10/08 05:13:44;;;;;;;;;;;;;;;22.06;34.68;98705.97;4945713;28;961;-77
2021/10/08 05:16:10;;;;;;;;;;;;;;;22.26;34.54;98712.53;4939210;29;1048;-77
2021/10/08 05:18:36;;;;;;;;;;;;;;;22.01;34.44;98710.09;4938399;29;1267;-77
2021/10/08 05:21:02;;;;;;;;;;;;;;;21.82;34.15;98717.31;4977236;28;1103;-76
2021/10/08 05:23:27;;;;;;;;;;;;;;;21.67;33.86;98732.91;4938289;29;1248;-77
2021/10/08 05:25:53;;;;;;;;;;;;;;;21.94;33.42;98740.59;4923090;29;1914;-77
2021/10/08 05:28:19;;;;;;;;;;;;;;;21.85;33.50;98741.94;4935089;29;1259;-77
2021/10/08 05:30:45;;;;;;;;;;;;;;;21.88;33.27;98736.66;4882086;29;1260;-77
2021/10/08 05:33:13;;;;;;;;;;;;;;;21.81;33.26;98727.03;4881883;29;1212;-77
2021/10/08 05:35:39;;;;;;;;;;;;;;;21.82;33.37;98725.00;4866424;29;1055;-76
2021/10/08 05:38:05;;;;;;;;;;;;;;;21.64;33.41;98719.59;4881846;29;913;-77
2021/10/08 05:40:31;;;;;;;;;;;;;;;21.65;33.27;98715.53;4881667;29;1097;-77
2021/10/08 05:43:00;;;;;;;;;;;;;;;21.72;33.03;98712.63;4900779;29;1159;-78
2021/10/08 05:45:25;;;;;;;;;;;;;;;21.70;33.01;98715.06;4914156;29;1969;-76
2021/10/08 05:47:51;;;;;;;;;;;;;;;22.01;33.91;98714.97;4891549;29;1862;-77
2021/10/08 05:50:17;;;;;;;;;;;;;;;22.17;34.24;98720.78;4899998;29;943;-76
2021/10/08 05:52:43;;;;;;;;;;;;;;;22.30;34.58;98718.94;4900164;29;1141;-76
2021/10/08 05:55:09;;;;;;;;;;;;;;;22.07;34.00;98713.22;4914306;29;1133;-76
2021/10/08 05:57:35;;;;;;;;;;;;;;;21.90;33.78;98717.19;4931438;29;1168;-77
2021/10/08 06:00:01;;;;;;;;;;;;;;;21.85;33.64;98730.59;4956882;29;1073;-77
2021/10/08 06:02:26;;;;;;;;;;;;;;;21.76;33.52;98724.69;4971613;28;1565;-78
2021/10/08 06:04:52;;;;;;;;;;;;;;;21.70;33.34;98731.25;4960106;28;1910;-77
2021/10/08 06:07:17;;;;;;;;;;;;;;;21.72;33.23;98735.28;4955870;29;1879;-77
2021/10/08 06:09:45;;;;;;;;;;;;;;;21.61;33.26;98723.31;4952518;29;1339;-76
2021/10/08 06:12:12;;;;;;;;;;;;;;;21.76;33.17;98724.69;4975604;28;1874;-77
2021/10/08 06:14:41;;;;;;;;;;;;;;;21.64;32.99;98727.31;4944961;28;2043;-77
2021/10/08 06:17:06;;;;;;;;;;;;;;;21.59;33.19;98725.75;4949649;28;1921;-77
2021/10/08 06:19:33;;;;;;;;;;;;;;;21.56;33.02;98720.97;4955116;28;1115;-80
2021/10/08 06:22:00;;;;;;;;;;;;;;;21.87;34.18;98732.22;4958972;28;1829;-78
2021/10/08 06:24:25;;;;;;;;;;;;;;;22.01;34.37;98723.47;4958295;28;1911;-78
2021/10/08 06:26:51;;;;;;;;;;;;;;;22.27;34.22;98728.28;4959148;29;1343;-78
2021/10/08 06:29:17;;;;;;;;;;;;;;;22.09;33.71;98724.97;4963720;28;1072;-78
2021/10/08 06:31:43;;;;;;;;;;;;;;;21.92;33.50;98721.19;4970302;28;1949;-78
2021/10/08 06:34:09;;;;;;;;;;;;;;;21.85;32.98;98716.44;4960788;28;1768;-78
2021/10/08 06:36:34;;;;;;;;;;;;;;;21.84;33.04;98720.50;4958013;28;1847;-78
2021/10/08 06:39:00;;;;;;;;;;;;;;;21.78;33.32;98716.56;4973585;28;1285;-79
2021/10/08 06:41:25;;;;;;;;;;;;;;;21.84;32.91;98709.16;4978575;28;1108;-78
2021/10/08 06:43:58;;;;;;;;;;;;;;;21.77;32.99;98709.28;4939560;28;1915;-78
2021/10/08 06:46:25;;;;;;;;;;;;;;;21.75;33.12;98716.59;4939968;29;1170;-78
2021/10/08 06:48:53;;;;;;;;;;;;;;;21.85;32.83;98724.94;4923535;29;1293;-77
2021/10/08 06:51:19;;;;;;;;;;;;;;;21.78;33.12;98716.56;4940058;29;1367;-77
2021/10/08 06:53:45;;;;;;;;;;;;;;;21.77;33.19;98720.63;4938334;29;1273;-78
2021/10/08 06:56:11;;;;;;;;;;;;;;;21.70;33.16;98717.88;4939921;29;1203;-79
2021/10/08 06:58:59;;;;;;;;;;;;;;;21.77;33.12;98719.81;4890495;29;1576;-78
2021/10/08 07:01:27;;;;;;;;;;;;;;;21.83;32.76;98730.22;4832944;29;1897;-78
2021/10/08 07:03:52;;;;;;;;;;;;;;;21.34;34.28;98731.78;4884756;29;1671;-78
2021/10/08 07:06:18;;;;;;;;;;;;;;;21.84;33.67;98731.84;4853709;29;1979;-78
2021/10/08 07:08:44;;;;;;;;;;;;;;;21.84;33.22;98734.66;4863620;29;1558;-78
2021/10/08 07:11:10;;;;;;;;;;;;;;;21.75;33.61;98728.72;4883685;29;1795;-79
2021/10/08 07:13:36;;;;;;;;;;;;;;;22.01;34.30;98723.47;4898058;29;2103;-78
2021/10/08 07:16:01;;;;;;;;;;;;;;;22.06;34.36;98742.81;4891226;29;1952;-78
2021/10/08 07:18:34;;;;;;;;;;;;;;;22.28;34.31;98740.47;4900052;29;1159;-78
2021/10/08 07:21:02;;;;;;;;;;;;;;;22.00;33.91;98738.88;4900813;29;1599;-78
2021/10/08 07:23:28;;;;;;;;;;;;;;;21.93;33.69;98739.78;4879659;29;1492;-78
2021/10/08 07:25:54;;;;;;;;;;;;;;;21.92;32.81;98737.41;4961237;28;1906;-78
2021/10/08 07:28:20;;;;;;;;;;;;;;;21.78;32.86;98733.56;4976802;28;976;-78
2021/10/08 07:30:45;;;;;;;;;;;;;;;21.67;33.10;98727.25;5015744;28;921;-78
2021/10/08 07:33:11;;;;;;;;;;;;;;;21.85;32.77;98721.28;5048803;28;1009;-78
2021/10/08 07:35:36;;;;;;;;;;;;;;;21.69;32.91;98719.13;5056586;28;908;-78
2021/10/08 07:38:02;;;;;;;;;;;;;;;21.73;33.13;98719.06;5055383;28;920;-78
2021/10/08 07:40:27;;;;;;;;;;;;;;;21.70;32.70;98712.22;5055138;28;1131;-78
2021/10/08 07:42:53;;;;;;;;;;;;;;;21.73;32.85;98711.38;5055633;28;948;-77
2021/10/08 07:45:18;;;;;;;;;;;;;;;21.64;32.92;98711.09;5038015;28;1914;-78
2021/10/08 07:47:43;;;;;;;;;;;;;;;21.57;33.19;98703.53;5055832;28;1239;-78
2021/10/08 07:50:09;;;;;;;;;;;;;;;21.75;32.73;98694.75;5053014;28;1864;-78
2021/10/08 07:52:35;;;;;;;;;;;;;;;21.67;33.12;98703.81;5020822;28;1911;-77
2021/10/08 07:55:00;;;;;;;;;;;;;;;22.10;33.66;98698.22;5029054;28;970;-76
2021/10/08 07:57:25;;;;;;;;;;;;;;;22.28;33.81;98698.75;5037909;28;924;-79
2021/10/08 07:59:51;;;;;;;;;;;;;;;22.04;33.64;98700.75;5036811;28;1515;-79
2021/10/08 08:02:16;;;;;;;;;;;;;;;21.98;33.42;98710.19;5038374;28;769;-79
2021/10/08 08:04:42;;;;;;;;;;;;;;;22.03;32.80;98707.66;5010975;28;1983;-79
2021/10/08 08:07:07;;;;;;;;;;;;;;;21.90;33.07;98705.84;5024284;28;1449;-79
2021/10/08 08:09:32;;;;;;;;;;;;;;;21.96;32.68;98702.09;5017351;28;1040;-79
2021/10/08 08:11:58;;;;;;;;;;;;;;;22.02;32.83;98700.38;5018445;28;1008;-80
2021/10/08 08:14:23;;;;;;;;;;;;;;;22.05;32.65;98704.38;5005857;28;983;-79
2021/10/08 08:16:49;;;;;;;;;;;;;;;21.97;32.63;98711.41;5017145;28;955;-78
2021/10/08 08:19:14;;;;;;;;;;;;;;;21.97;32.56;98711.41;5015690;28;1529;-79
2021/10/08 08:21:41;;;;;;;;;;;;;;;22.02;32.71;98708.06;5001327;28;922;-78
2021/10/08 08:24:06;;;;;;;;;;;;;;;22.05;32.33;98701.53;4999796;28;1898;-79
2021/10/08 08:26:32;;;;;;;;;;;;;;;21.94;32.96;98712.25;5001510;28;1300;-79
2021/10/08 08:28:57;;;;;;;;;;;;;;;22.01;32.34;98717.78;5000120;28;851;-79
2021/10/08 08:31:22;;;;;;;;;;;;;;;22.04;32.32;98714.13;5001587;28;1026;-79
2021/10/08 08:33:48;;;;;;;;;;;;;;;21.96;32.39;98719.09;5034449;28;1913;-78
2021/10/08 08:36:14;;;;;;;;;;;;;;;22.09;32.32;98719.28;5069494;28;954;-78
2021/10/08 08:38:39;;;;;;;;;;;;;;;22.00;32.62;98710.53;5078450;28;874;-79
2021/10/08 08:41:05;;;;;;;;;;;;;;;21.91;32.40;98724.44;5020831;28;864;-79
2021/10/08 08:43:30;;;;;;;;;;;;;;;22.08;32.17;98717.69;5002296;28;962;-79
2021/10/08 08:45:56;;;;;;;;;;;;;;;22.17;31.70;98719.97;5020267;28;1987;-79
2021/10/08 08:48:21;;;;;;;;;;;;;;;21.99;32.28;98703.28;5018798;28;1011;-79
2021/10/08 08:50:47;;;;;;;;;;;;;;;22.01;31.97;98689.47;5020737;28;940;-79
2021/10/08 08:53:12;;;;;;;;;;;;;;;22.15;31.73;98706.25;4999464;28;893;-79
2021/10/08 08:55:38;;;;;;;;;;;;;;;22.03;31.82;98687.00;5000397;28;937;-79
2021/10/08 08:58:03;;;;;;;;;;;;;;;22.15;31.64;98686.41;4999869;28;1025;-79
2021/10/08 09:00:29;;;;;;;;;;;;;;;22.11;31.92;98674.31;5000178;28;881;-79
2021/10/08 09:02:55;;;;;;;;;;;;;;;22.08;31.79;98667.47;4999582;28;1006;-79
2021/10/08 09:05:24;;;;;;;;;;;;;;;21.94;32.34;98672.59;4999917;28;1911;-79
2021/10/08 09:07:50;;;;;;;;;;;;;;;22.01;32.19;98670.41;4999397;28;933;-79
2021/10/08 09:10:16;;;;;;;;;;;;;;;22.15;31.91;98677.09;4999994;28;796;-79
2021/10/08 09:12:42;;;;;;;;;;;;;;;22.13;31.98;98662.59;5000229;28;842;-79
2021/10/08 09:15:08;;;;;;;;;;;;;;;22.07;31.77;98670.72;4999373;28;941;-79
2021/10/08 09:17:33;;;;;;;;;;;;;;;21.93;32.21;98685.16;4999899;28;1094;-78
2021/10/08 09:20:02;;;;;;;;;;;;;;;22.07;31.71;98690.56;4999312;28;973;-79
2021/10/08 09:22:36;;;;;;;;;;;;;;;22.08;31.73;98686.53;4999792;28;914;-79
2021/10/08 09:25:12;;;;;;;;;;;;;;;21.95;32.15;98686.31;5026662;28;1898;-79
2021/10/08 09:27:37;;;;;;;;;;;;;;;22.02;32.01;98685.38;5022438;28;1165;-78
2021/10/08 09:30:03;;;;;;;;;;;;;;;21.91;31.72;98696.91;5018783;28;1540;-79
2021/10/08 09:32:28;;;;;;;;;;;;;;;22.14;31.51;98715.19;5019348;28;834;-79
2021/10/08 09:35:04;;;;;;;;;;;;;;;22.10;31.58;98704.72;5047529;28;1754;-78
2021/10/08 09:37:30;;;;;;;;;;;;;;;22.04;31.74;98711.28;5057811;28;1489;-81
2021/10/08 09:39:55;;;;;;;;;;;;;;;22.03;31.53;98706.84;5000823;28;969;-79
2021/10/08 09:42:22;;;;;;;;;;;;;;;22.15;31.23;98717.59;5001544;28;947;-79
2021/10/08 09:44:51;;;;;;;;;;;;;;;22.09;31.39;98710.78;5000254;28;1894;-79
2021/10/08 09:47:26;;;;;;;;;;;;;;;22.06;31.32;98703.13;5000491;28;1573;-79
2021/10/08 09:49:52;;;;;;;;;;;;;;;22.03;31.34;98699.16;4980750;28;1464;-79
2021/10/08 09:52:28;;;;;;;;;;;;;;;22.06;31.68;98691.78;4984200;28;934;-79
2021/10/08 09:54:54;;;;;;;;;;;;;;;21.98;31.75;98685.47;4980682;28;939;-79
2021/10/08 09:57:21;;;;;;;;;;;;;;;22.11;31.25;98677.16;4968691;28;1485;-80
2021/10/08 09:59:48;;;;;;;;;;;;;;;22.04;31.30;98677.28;4960856;29;1291;-79
2021/10/08 10:02:13;;;;;;;;;;;;;;;22.16;31.03;98679.50;4922706;29;938;-79
2021/10/08 10:04:48;;;;;;;;;;;;;;;22.03;31.28;98664.34;4922271;29;1961;-80
2021/10/08 10:07:14;;;;;;;;;;;;;;;21.90;31.60;98672.66;4926248;29;920;-82
2021/10/08 10:09:40;;;;;;;;;;;;;;;21.97;31.58;98671.75;4924429;29;915;-80
2021/10/08 10:12:06;;;;;;;;;;;;;;;21.95;31.57;98662.84;4906040;29;942;-80
2021/10/08 10:14:31;;;;;;;;;;;;;;;21.97;31.40;98666.06;4904444;29;1932;-80
2021/10/08 10:16:57;;;;;;;;;;;;;;;21.99;31.66;98674.94;4897168;29;1554;-81
2021/10/08 10:19:23;;;;;;;;;;;;;;;22.10;31.08;98679.19;4900057;29;902;-81
2021/10/08 10:21:48;;;;;;;;;;;;;;;22.04;31.61;98677.28;4851040;29;1654;-81
2021/10/08 10:24:14;;;;;;;;;;;;;;;22.11;31.16;98688.50;4848415;29;1911;-80
2021/10/08 10:26:42;;;;;;;;;;;;;;;22.00;31.34;98682.19;4867973;29;1324;-80
2021/10/08 10:29:08;;;;;;;;;;;;;;;21.96;31.35;98675.78;4850615;29;928;-80
2021/10/08 10:31:35;;;;;;;;;;;;;;;22.05;31.39;98670.38;4893053;29;960;-80
2021/10/08 10:34:01;;;;;;;;;;;;;;;22.03;31.37;98675.69;4889209;29;881;-80
2021/10/08 10:36:27;;;;;;;;;;;;;;;22.07;31.36;98671.56;4924597;29;886;-81
2021/10/08 10:39:11;;;;;;;;;;;;;;;22.10;30.98;98686.88;4904456;29;910;-81
2021/10/08 10:41:37;;;;;;;;;;;;;;;22.08;31.06;98680.84;4893870;29;1724;-82
2021/10/08 10:44:26;;;;;;;;;;;;;;;22.12;31.02;98684.44;4886773;29;1486;-81
2021/10/08 10:46:57;;;;;;;;;;;;;;;22.00;31.20;98683.00;4898087;29;1872;-82
2021/10/08 10:52:04;;;;;;;;;;;;;;;22.07;31.40;98676.38;4890333;29;1468;-82
2021/10/08 10:54:38;;;;;;;;;;;;;;;22.15;30.86;98680.75;4888658;29;1542;-82
2021/10/08 10:57:04;;;;;;;;;;;;;;;22.14;31.09;98670.66;4890649;29;861;-82
2021/10/08 10:59:30;;;;;;;;;;;;;;;22.12;31.07;98661.75;4896705;29;1563;-81
2021/10/08 11:02:20;;;;;;;;;;;;;;;22.02;31.34;98666.38;4922651;29;912;-82
2021/10/08 11:04:49;;;;;;;;;;;;;;;22.06;31.25;98663.47;4924661;29;1906;-80
2021/10/08 11:07:16;;;;;;;;;;;;;;;21.99;31.08;98657.94;4942565;29;1429;-80
2021/10/08 11:09:42;;;;;;;;;;;;;;;22.04;31.11;98648.94;4918207;29;1557;-80
2021/10/08 11:12:26;;;;;;;;;;;;;;;22.05;31.04;98640.00;4942592;29;1003;-81
2021/10/08 11:15:11;;;;;;;;;;;;;;;22.15;31.09;98631.75;4977882;28;882;-82
2021/10/08 11:17:42;;;;;;;;;;;;;;;22.16;31.05;98634.16;4983196;28;1007;-81
2021/10/08 11:20:08;;;;;;;;;;;;;;;22.21;30.90;98636.47;4979145;28;815;-79
2021/10/08 11:22:43;;;;;;;;;;;;;;;22.19;30.84;98641.81;4988920;28;962;-79
2021/10/08 11:25:10;;;;;;;;;;;;;;;22.07;30.91;98645.22;5000696;28;1981;-81
2021/10/08 11:27:36;;;;;;;;;;;;;;;22.08;30.79;98638.34;5002310;28;934;-80
2021/10/08 11:30:05;;;;;;;;;;;;;;;21.98;31.02;98645.00;5001027;28;917;-81
2021/10/08 11:32:31;;;;;;;;;;;;;;;21.96;31.24;98653.13;4993408;28;913;-81
2021/10/08 11:34:57;;;;;;;;;;;;;;;22.08;30.82;98661.00;4997870;28;829;-81
2021/10/08 11:37:28;;;;;;;;;;;;;;;22.12;31.11;98661.75;4979267;28;1148;-80
2021/10/08 11:39:54;;;;;;;;;;;;;;;22.19;30.95;98666.50;4960445;29;812;-80
2021/10/08 11:42:21;;;;;;;;;;;;;;;22.05;30.97;98661.88;4963638;29;911;-80
2021/10/08 11:49:58;;;;;;;;;;;;;;;22.08;31.30;98675.19;4959212;29;1231;-80
2021/10/08 11:52:49;;;;;;;;;;;;;;;22.16;31.12;98670.19;4961489;28;931;-80
2021/10/08 11:55:16;;;;;;;;;;;;;;;22.26;31.02;98681.34;4926728;29;1060;-80
2021/10/08 11:58:00;;;;;;;;;;;;;;;22.17;31.08;98681.09;4927214;29;934;-80
2021/10/08 12:00:34;;;;;;;;;;;;;;;22.21;31.13;98670.50;4927157;29;979;-80
2021/10/08 12:02:59;;;;;;;;;;;;;;;22.08;30.93;98667.47;4894135;29;958;-81
2021/10/08 12:05:25;;;;;;;;;;;;;;;21.81;31.53;98663.88;4910114;29;1999;-82
2021/10/08 12:07:55;;;;;;;;;;;;;;;22.09;31.23;98651.28;4922164;29;965;-83
2021/10/08 12:10:21;;;;;;;;;;;;;;;22.09;31.11;98637.91;4909078;29;934;-80
2021/10/08 12:12:50;;;;;;;;;;;;;;;22.25;30.82;98640.06;4922795;29;965;-79
2021/10/08 12:15:23;;;;;;;;;;;;;;;22.14;31.12;98647.16;4901764;29;907;-81
2021/10/08 12:17:49;;;;;;;;;;;;;;;22.00;31.34;98631.19;4908138;29;898;-81
2021/10/08 12:20:18;;;;;;;;;;;;;;;22.00;31.41;98642.53;4893523;29;1710;-80
2021/10/08 12:22:44;;;;;;;;;;;;;;;22.10;31.45;98635.84;4903056;29;1411;-80
2021/10/08 12:25:09;;;;;;;;;;;;;;;22.17;31.00;98646.28;4919967;29;1919;-81
2021/10/08 12:27:35;;;;;;;;;;;;;;;22.11;31.17;98643.16;4927986;29;1520;-81
2021/10/08 12:30:00;;;;;;;;;;;;;;;22.15;31.05;98649.56;4926925;29;851;-81
2021/10/08 12:32:26;;;;;;;;;;;;;;;22.21;31.11;98647.81;4940048;29;993;-81
2021/10/08 12:34:54;;;;;;;;;;;;;;;22.16;31.39;98648.31;4962134;29;895;-81
2021/10/08 12:37:22;;;;;;;;;;;;;;;22.14;31.30;98647.16;4966640;29;1012;-81
2021/10/08 12:40:11;;;;;;;;;;;;;;;22.20;31.10;98651.91;4982165;28;950;-81
2021/10/08 12:42:40;;;;;;;;;;;;;;;22.19;31.35;98644.63;4986027;28;782;-81
2021/10/08 12:45:19;;;;;;;;;;;;;;;22.16;31.01;98648.31;5023612;28;1979;-81
2021/10/08 12:47:44;;;;;;;;;;;;;;;22.12;31.24;98655.28;5023321;28;1111;-81
2021/10/08 12:50:14;;;;;;;;;;;;;;;22.16;31.34;98662.50;5001861;28;923;-80
2021/10/08 12:52:40;;;;;;;;;;;;;;;22.28;31.15;98663.91;5001211;28;898;-80
2021/10/08 12:55:06;;;;;;;;;;;;;;;22.16;31.30;98673.84;4999951;28;1019;-78
2021/10/08 12:57:32;;;;;;;;;;;;;;;22.14;31.37;98658.50;5008115;28;955;-79
2021/10/08 12:59:57;;;;;;;;;;;;;;;22.23;31.16;98653.88;5001679;28;966;-78
2021/10/08 13:02:23;;;;;;;;;;;;;;;22.20;31.16;98646.22;5017405;28;912;-78
2021/10/08 13:04:49;;;;;;;;;;;;;;;22.09;31.45;98634.25;5016223;28;1914;-79
2021/10/08 13:07:15;;;;;;;;;;;;;;;22.00;31.56;98631.19;5018291;28;1101;-78
2021/10/08 13:10:00;;;;;;;;;;;;;;;22.01;31.50;98633.59;5017604;28;1010;-77